Share

Heraklion, Greece

4:30 AM EEST on April 24, 2014 (GMT +0300)
Atlantis Hotel / S.N.Paritsis (ICRETEHE5) Elev 75 ft | 35.34 °N, 25.14 °E | Change Station

Current weather conditions updated 7 minutes ago

Mostly Cloudy
Mostly Cloudy
73.9 °F
Feels Like 77 °F
N
9.0
Wind Variable Wind from ESE
Gusts 21.0 mph
Sunrise 6:36 AM
Sunset 7:59 PM
Moon Waning Crescent

Today is forecast to be Much Cooler than yesterday.

Pressure 29.80 in
Visibility 6.2 miles
Clouds Few 2500 ft
Scattered Clouds 8000 ft
Mostly Cloudy 18000 ft
Heat Index 77 °F
Dew Point 46 °F
Humidity 37%
Rainfall 0.00 in
Snow Depth Not available.
UV 0 out of 16
Pollen Not available.
Air Quality Not available.
Flu Activity Not available.
METAR LGSA 240120Z 35006KT 9999 FEW025 SCT080 BKN180 20/09 Q1009

More Conditions Fewer Conditions

Pressure 29.80 in
Visibility 6.2 miles
Clouds Few 2500 ft
Scattered Clouds 8000 ft
Mostly Cloudy 18000 ft
Heat Index 77 °F
Dew Point 46 °F
Humidity 37%
Rainfall 0.00 in
Snow Depth Not available.
UV 0 out of 16
Pollen Not available.
Air Quality Not available.
Flu Activity Not available.
METAR LGSA 240120Z 35006KT 9999 FEW025 SCT080 BKN180 20/09 Q1009

More Conditions Fewer Conditions

10-Day Weather Forecast

Almanac

Astronomy

Apr. 24, 2014 Rise Set
Actual Time 6:36 AM EEST 7:59 PM EEST
Civil Twilight 6:09 AM EEST 8:26 PM EEST
Nautical Twilight 5:37 AM EEST 8:58 PM EEST
Astronomical Twilight 5:04 AM EEST 9:31 PM EEST
Moon 3:23 AM EEST 3:04 PM EEST
Length of Visible Light 14h 16m
Length of Day
13h 23m
Tomorrow will be 2m 0s longer.
Waning Crescent, 31% of the Moon is Illuminated
Apr 23
Waning Crescent
Apr 29
New
May 6
First Quarter
May 14
Full
May 21
Last Quarter

Yesterday's Extremes

Country Highs Country Lows

Community

  • Nestled In
    Nestled In
  • Stunning Sunrise
    Stunning Sunrise
  • spring flowers
    spring flowers
  • Earth Day Spectrum Ove' Blue
    Earth Day Spectrum Ove' Blue
  • BARN B&W
    BARN B&W

WunderPhotos

Upload Photos

1,704,487 photos uploaded!

Nearby

Snow Depth

Not available.

Coastal Water Temperatures

Place Temperature
No Stations Reporting

Earthquake Activity

City Distance Mag. Time & Date
No recent earthquake activity has been reported nearby.
Minimum magnitude displayed is 2.5.

Nearby Weather Stations

Station Location Temp. Heat Index Dew Point Humidity Wind Precip. Elev Updated Type
Atlantis Hotel / S.N.Paritsis, Heraklion 73.9 °F 77 °F 46 °F 37% ESE  at  9.0 mph 0.00 in / hr 75 ft 4:22 AM EEST Normal
Studio 19 FM / Iraklio, Heraklion 72.9 °F 77 °F 48 °F 41% South  at  30.4 mph 0.00 in / hr 98 ft 4:30 AM EEST Normal
Stavrakia, Heraklion 68.4 °F - 43 °F 40% South  at  14.5 mph 0.00 in / hr 791 ft 4:30 AM EEST Rapid Fire

Show More Stations Show Fewer Stations

What do you think?

We're not finished. Please let us know what you like, what you don't like, and what you are still missing.